createdAt,value
2023-03-12T00:02:21.541Z,5.80
2023-03-12T00:04:49.977Z,4.05
2023-03-12T00:07:17.900Z,4.95
2023-03-12T00:09:45.938Z,5.03
2023-03-12T00:12:13.811Z,5.50
2023-03-12T00:14:41.789Z,5.18
2023-03-12T00:17:11.107Z,4.15
2023-03-12T00:19:39.101Z,4.63
2023-03-12T00:22:07.139Z,6.68
2023-03-12T00:24:35.000Z,5.32
2023-03-12T00:27:02.856Z,4.85
2023-03-12T00:29:30.809Z,5.95
2023-03-12T00:31:58.816Z,4.32
2023-03-12T00:34:28.431Z,7.13
2023-03-12T00:36:56.602Z,5.05
2023-03-12T00:39:24.480Z,3.75
2023-03-12T00:41:52.291Z,4.30
2023-03-12T00:44:20.504Z,5.55
2023-03-12T00:46:48.542Z,4.63
2023-03-12T00:49:16.736Z,5.57
2023-03-12T00:51:46.476Z,6.28
2023-03-12T00:54:16.731Z,5.25
2023-03-12T00:56:46.764Z,4.13
2023-03-12T00:59:15.373Z,5.32
2023-03-12T01:01:43.441Z,4.47
2023-03-12T01:04:11.435Z,5.72
2023-03-12T01:06:39.336Z,4.32
2023-03-12T01:09:09.274Z,4.00
2023-03-12T01:11:38.043Z,4.22
2023-03-12T01:14:06.872Z,4.00
2023-03-12T01:16:35.204Z,7.25
2023-03-12T01:19:03.714Z,4.47
2023-03-12T01:21:32.309Z,4.22
2023-03-12T01:24:00.292Z,4.85
2023-03-12T01:26:29.780Z,3.60
2023-03-12T01:29:03.650Z,3.92
2023-03-12T01:31:31.811Z,4.00
2023-03-12T01:33:59.716Z,3.33
2023-03-12T01:36:29.269Z,4.30
2023-03-12T01:38:57.894Z,3.75
2023-03-12T01:41:27.728Z,3.88
2023-03-12T01:43:57.063Z,4.50
2023-03-12T01:46:29.733Z,4.22
2023-03-12T01:49:00.591Z,4.38
2023-03-12T01:51:31.012Z,3.83
2023-03-12T01:54:00.695Z,4.68
2023-03-12T01:56:31.662Z,4.05
2023-03-12T01:59:01.680Z,3.53
2023-03-12T02:01:30.748Z,4.20
2023-03-12T02:04:00.954Z,5.30
2023-03-12T02:06:32.232Z,6.20
2023-03-12T02:09:02.172Z,3.78
2023-03-12T02:11:31.028Z,5.82
2023-03-12T02:14:00.441Z,5.53
2023-03-12T02:16:28.858Z,5.53
2023-03-12T02:18:58.739Z,4.97
2023-03-12T02:21:28.510Z,4.90
2023-03-12T02:23:58.776Z,6.75
2023-03-12T02:26:30.842Z,5.10
2023-03-12T02:29:00.652Z,5.53
2023-03-12T02:31:30.813Z,3.70
2023-03-12T02:34:00.695Z,6.32
2023-03-12T02:36:28.915Z,4.43
2023-03-12T02:38:57.456Z,6.00
2023-03-12T02:41:27.208Z,4.00
2023-03-12T02:44:00.009Z,5.25
2023-03-12T02:46:28.719Z,6.45
2023-03-12T02:48:57.327Z,5.32
2023-03-12T02:51:25.225Z,3.38
2023-03-12T02:53:55.161Z,6.07
2023-03-12T02:56:23.890Z,4.82
2023-03-12T02:58:52.009Z,3.92
2023-03-12T03:01:21.752Z,5.13
2023-03-12T03:03:50.020Z,5.93
2023-03-12T03:06:18.648Z,6.13
2023-03-12T03:08:46.615Z,5.10
2023-03-12T03:11:14.903Z,5.40
2023-03-12T03:13:42.785Z,7.38
2023-03-12T03:16:12.426Z,5.40
2023-03-12T03:18:42.185Z,6.07
2023-03-12T03:21:10.606Z,5.38
2023-03-12T03:23:38.710Z,5.38
2023-03-12T03:26:06.543Z,5.45
2023-03-12T03:28:34.484Z,5.90
2023-03-12T03:31:02.492Z,5.72
2023-03-12T03:33:36.882Z,5.53
2023-03-12T03:36:08.154Z,6.88
2023-03-12T03:38:40.023Z,5.90
2023-03-12T03:41:08.156Z,6.78
2023-03-12T03:43:41.139Z,7.88
2023-03-12T03:46:11.845Z,6.63
2023-03-12T03:48:42.885Z,6.22
2023-03-12T03:51:13.015Z,5.70
2023-03-12T03:53:44.548Z,6.72
2023-03-12T03:56:13.503Z,9.02
2023-03-12T03:58:45.409Z,5.50
2023-03-12T04:01:13.992Z,6.72
2023-03-12T04:03:42.715Z,8.43
2023-03-12T04:06:11.698Z,7.85
2023-03-12T04:08:41.785Z,6.55
2023-03-12T04:11:14.924Z,8.70
2023-03-12T04:13:43.581Z,8.02
2023-03-12T04:16:12.990Z,6.45
2023-03-12T04:18:43.151Z,6.85
2023-03-12T04:21:12.482Z,7.30
2023-03-12T04:23:42.786Z,6.40
2023-03-12T04:26:12.778Z,6.78
2023-03-12T04:28:41.009Z,6.88
2023-03-12T04:31:10.300Z,8.57
2023-03-12T04:33:42.598Z,8.02
2023-03-12T04:36:13.244Z,7.65
2023-03-12T04:38:46.418Z,9.98
2023-03-12T04:41:16.951Z,6.85
2023-03-12T04:43:49.695Z,8.82
2023-03-12T04:46:19.378Z,5.90
2023-03-12T04:48:47.947Z,9.27
2023-03-12T04:51:16.561Z,7.47
2023-03-12T04:53:46.079Z,8.43
2023-03-12T04:56:14.964Z,7.45
2023-03-12T04:58:44.283Z,8.48
2023-03-12T05:01:20.592Z,8.13
2023-03-12T05:03:48.569Z,8.98
2023-03-12T05:06:16.606Z,8.75
2023-03-12T05:08:46.553Z,7.63
2023-03-12T05:11:15.054Z,9.55
2023-03-12T05:13:44.134Z,9.00
2023-03-12T05:16:13.186Z,9.73
2023-03-12T05:18:42.339Z,9.65
2023-03-12T05:21:12.788Z,9.32
2023-03-12T05:23:42.591Z,10.82
2023-03-12T05:26:18.714Z,12.40
2023-03-12T05:28:46.886Z,10.57
2023-03-12T05:31:15.720Z,14.25
2023-03-12T05:33:44.296Z,11.93
2023-03-12T05:36:13.257Z,12.18
2023-03-12T05:38:42.738Z,12.57
2023-03-12T05:41:17.721Z,15.48
2023-03-12T05:43:47.166Z,12.20
2023-03-12T05:46:15.483Z,12.40
2023-03-12T05:48:43.477Z,10.70
2023-03-12T05:51:11.690Z,15.02
2023-03-12T05:53:40.050Z,10.50
2023-03-12T05:56:08.939Z,11.85
2023-03-12T05:58:38.148Z,11.40
2023-03-12T06:01:12.982Z,10.65
2023-03-12T06:03:42.960Z,11.43
2023-03-12T06:06:11.085Z,14.15
2023-03-12T06:08:39.137Z,11.63
2023-03-12T06:11:07.096Z,12.00
2023-03-12T06:13:35.616Z,14.75
2023-03-12T06:16:05.579Z,12.27
2023-03-12T06:18:36.216Z,16.02
2023-03-12T06:21:11.723Z,13.27
2023-03-12T06:23:43.208Z,11.13
2023-03-12T06:26:15.109Z,12.95
2023-03-12T06:28:43.756Z,14.18
2023-03-12T06:31:11.767Z,12.52
2023-03-12T06:33:41.508Z,12.93
2023-03-12T06:36:10.620Z,11.25
2023-03-12T06:38:38.822Z,13.98
2023-03-12T06:41:07.811Z,12.18
2023-03-12T06:43:36.513Z,11.98
2023-03-12T06:46:04.990Z,11.30
2023-03-12T06:48:36.645Z,14.45
2023-03-12T06:51:06.218Z,12.45
2023-03-12T06:53:34.112Z,11.52
2023-03-12T06:56:02.815Z,11.93
2023-03-12T06:58:30.975Z,13.05
2023-03-12T07:00:58.861Z,12.38
2023-03-12T07:03:26.818Z,10.75
2023-03-12T07:05:58.271Z,12.38
2023-03-12T07:08:29.900Z,11.38
2023-03-12T07:11:00.750Z,11.75
2023-03-12T07:13:29.277Z,11.10
2023-03-12T07:15:57.263Z,13.15
2023-03-12T07:18:25.223Z,11.85
2023-03-12T07:20:53.534Z,10.73
2023-03-12T07:23:21.589Z,11.70
2023-03-12T07:25:51.189Z,13.85
2023-03-12T07:28:19.624Z,12.45
2023-03-12T07:30:50.609Z,14.18
2023-03-12T07:33:19.476Z,11.73
2023-03-12T07:35:50.201Z,10.57
2023-03-12T07:38:19.633Z,10.05
2023-03-12T07:40:52.987Z,13.23
2023-03-12T07:43:21.847Z,10.68
2023-03-12T07:45:51.911Z,9.25
2023-03-12T07:48:20.306Z,9.55
2023-03-12T07:50:48.763Z,9.95
2023-03-12T07:53:16.964Z,7.90
2023-03-12T07:55:46.150Z,7.75
2023-03-12T07:58:15.865Z,9.27
2023-03-12T08:00:44.436Z,8.07
2023-03-12T08:03:12.683Z,10.32
2023-03-12T08:05:40.866Z,7.35
2023-03-12T08:08:08.954Z,11.45
2023-03-12T08:10:37.430Z,10.32
2023-03-12T08:13:05.382Z,8.85
2023-03-12T08:15:34.939Z,9.35
2023-03-12T08:18:02.740Z,9.05
2023-03-12T08:20:30.538Z,10.18
2023-03-12T08:22:58.409Z,9.15
2023-03-12T08:25:26.510Z,9.85
2023-03-12T08:27:54.582Z,11.35
2023-03-12T08:30:22.775Z,9.73
2023-03-12T08:32:52.145Z,8.13
2023-03-12T08:35:20.027Z,10.57
2023-03-12T08:37:51.070Z,7.97
2023-03-12T08:40:19.056Z,9.48
2023-03-12T08:42:47.026Z,11.20
2023-03-12T08:45:15.863Z,7.45
2023-03-12T08:47:44.428Z,9.45
2023-03-12T08:50:15.357Z,9.50
2023-03-12T08:52:43.616Z,12.50
2023-03-12T08:55:11.863Z,9.40
2023-03-12T08:57:42.345Z,7.90
2023-03-12T09:00:15.384Z,9.60
2023-03-12T09:02:44.486Z,9.38
2023-03-12T09:05:14.159Z,9.35
2023-03-12T09:07:42.573Z,9.40
2023-03-12T09:10:10.821Z,11.60
2023-03-12T09:12:38.646Z,9.15
2023-03-12T09:15:07.150Z,9.63
2023-03-12T09:17:35.048Z,8.75
2023-03-12T09:20:07.188Z,10.05
2023-03-12T09:22:37.183Z,7.57
2023-03-12T09:25:13.219Z,11.23
2023-03-12T09:27:41.888Z,14.10
2023-03-12T09:30:11.006Z,8.95
2023-03-12T09:32:39.130Z,14.68
2023-03-12T09:35:07.291Z,10.95
2023-03-12T09:37:37.680Z,10.25
2023-03-12T09:40:08.007Z,7.90
2023-03-12T09:42:39.025Z,7.97
2023-03-12T09:45:08.602Z,9.25
2023-03-12T09:47:38.463Z,9.07
2023-03-12T09:50:08.020Z,11.68
2023-03-12T09:52:40.262Z,8.65
2023-03-12T09:55:14.997Z,7.93
2023-03-12T09:57:44.196Z,10.52
2023-03-12T10:00:14.547Z,10.98
2023-03-12T10:02:51.948Z,7.85
2023-03-12T10:05:24.344Z,8.68
2023-03-12T10:07:54.926Z,8.43
2023-03-12T10:10:32.005Z,9.98
2023-03-12T10:13:10.124Z,8.77
2023-03-12T10:15:42.164Z,6.85
2023-03-12T10:18:15.416Z,10.40
2023-03-12T10:20:50.632Z,8.70
2023-03-12T10:23:23.341Z,7.22
2023-03-12T10:25:54.703Z,8.70
2023-03-12T10:28:26.960Z,7.32
2023-03-12T10:30:56.055Z,6.18
2023-03-12T10:33:30.034Z,5.82
2023-03-12T10:35:58.052Z,6.20
2023-03-12T10:38:28.721Z,5.85
2023-03-12T10:40:57.968Z,8.30
2023-03-12T10:43:25.831Z,6.13
2023-03-12T10:45:56.678Z,6.35
2023-03-12T10:48:26.093Z,4.75
2023-03-12T10:51:02.585Z,8.95
2023-03-12T10:53:32.373Z,5.80
2023-03-12T10:56:03.269Z,10.75
2023-03-12T10:58:35.262Z,6.30
2023-03-12T11:01:04.133Z,7.80
2023-03-12T11:03:32.647Z,14.32
2023-03-12T11:06:01.395Z,6.00
2023-03-12T11:08:30.226Z,9.63
2023-03-12T11:10:58.651Z,8.15
2023-03-12T11:13:30.312Z,5.97
2023-03-12T11:15:59.090Z,6.35
2023-03-12T11:18:29.001Z,7.85
2023-03-12T11:20:57.626Z,4.80
2023-03-12T11:23:27.093Z,4.30
2023-03-12T11:25:56.990Z,4.53
2023-03-12T11:28:26.140Z,4.78
2023-03-12T11:30:58.515Z,3.42
2023-03-12T11:33:27.174Z,3.85
2023-03-12T11:36:14.123Z,3.42
2023-03-12T11:38:43.465Z,3.42
2023-03-12T11:41:19.354Z,5.18
2023-03-12T11:43:53.904Z,4.70
2023-03-12T11:46:28.637Z,2.55
2023-03-12T11:49:01.270Z,3.13
2023-03-12T11:51:34.346Z,3.45
2023-03-12T11:54:16.835Z,3.00
2023-03-12T11:56:46.250Z,5.30
2023-03-12T11:59:17.988Z,2.70
2023-03-12T12:01:53.825Z,3.25
2023-03-12T12:04:42.516Z,4.28
2023-03-12T12:07:15.133Z,5.75
2023-03-12T12:09:46.016Z,2.08
2023-03-12T12:12:20.201Z,3.85
2023-03-12T12:14:57.942Z,2.40
2023-03-12T12:17:32.565Z,2.67
2023-03-12T12:20:09.416Z,3.50
2023-03-12T12:22:45.492Z,2.85
2023-03-12T12:25:31.495Z,15.90
2023-03-12T12:28:06.692Z,2.10
2023-03-12T12:30:40.875Z,3.00
2023-03-12T12:33:18.633Z,2.03
2023-03-12T12:35:47.529Z,2.50
2023-03-12T12:38:17.190Z,2.83
2023-03-12T12:40:46.382Z,1.95
2023-03-12T12:43:23.763Z,5.40
2023-03-12T12:45:53.506Z,2.70
2023-03-12T12:48:26.246Z,2.92
2023-03-12T12:50:55.342Z,5.15
2023-03-12T12:53:25.115Z,2.45
2023-03-12T12:56:11.707Z,1.75
2023-03-12T12:59:03.335Z,3.90
2023-03-12T13:01:32.618Z,5.10
2023-03-12T13:04:04.207Z,1.60
2023-03-12T13:06:47.223Z,1.77
2023-03-12T13:09:16.768Z,2.25
2023-03-12T13:11:46.303Z,4.57
2023-03-12T13:14:21.623Z,3.92
2023-03-12T13:16:49.930Z,2.92
2023-03-12T13:19:28.712Z,2.28
2023-03-12T13:22:04.256Z,1.90
2023-03-12T13:24:34.345Z,1.50
2023-03-12T13:27:06.498Z,1.80
2023-03-12T13:29:39.031Z,1.75
2023-03-12T13:32:10.261Z,1.70
2023-03-12T13:34:47.027Z,1.60
2023-03-12T13:37:49.929Z,2.00
2023-03-12T13:40:37.086Z,4.30
2023-03-12T13:43:11.609Z,2.05
2023-03-12T13:45:42.386Z,3.72
2023-03-12T13:48:15.687Z,6.60
2023-03-12T13:50:52.007Z,5.13
2023-03-12T13:53:25.975Z,2.88
2023-03-12T13:56:01.729Z,3.33
2023-03-12T13:58:29.779Z,2.22
2023-03-12T14:00:58.904Z,2.92
2023-03-12T14:03:28.787Z,2.67
2023-03-12T14:05:59.693Z,2.40
2023-03-12T14:08:42.468Z,3.03
2023-03-12T14:11:21.713Z,2.22
2023-03-12T14:14:01.645Z,2.10
2023-03-12T14:16:32.285Z,6.13
2023-03-12T14:19:00.837Z,2.00
2023-03-12T14:21:32.380Z,2.20
2023-03-12T14:24:00.677Z,1.80
2023-03-12T14:26:30.969Z,1.73
2023-03-12T14:29:00.916Z,1.80
2023-03-12T14:31:30.315Z,1.98
2023-03-12T14:33:59.582Z,2.40
2023-03-12T14:36:29.132Z,1.48
2023-03-12T14:39:00.457Z,1.80
2023-03-12T14:41:31.411Z,2.97
2023-03-12T14:44:05.054Z,2.50
2023-03-12T14:46:33.125Z,7.20
2023-03-12T14:49:01.103Z,9.45
2023-03-12T14:51:30.317Z,9.05
2023-03-12T14:54:02.991Z,6.00
2023-03-12T14:56:34.849Z,4.68
2023-03-12T14:59:22.749Z,1.70
2023-03-12T15:01:50.903Z,1.83
2023-03-12T15:04:19.798Z,1.77
2023-03-12T15:06:49.078Z,2.20
2023-03-12T15:09:18.728Z,3.42
2023-03-12T15:11:52.346Z,1.95
2023-03-12T15:14:21.846Z,2.03
2023-03-12T15:16:50.820Z,2.47
2023-03-12T15:19:21.618Z,2.20
2023-03-12T15:21:49.606Z,2.88
2023-03-12T15:24:18.178Z,3.50
2023-03-12T15:26:46.135Z,2.20
2023-03-12T15:29:26.390Z,3.28
2023-03-12T15:31:56.250Z,2.55
2023-03-12T15:34:32.869Z,2.28
2023-03-12T15:37:01.811Z,3.45
2023-03-12T15:39:32.043Z,2.42
2023-03-12T15:42:01.773Z,13.80
2023-03-12T15:44:34.520Z,5.47
2023-03-12T15:47:06.261Z,5.72
2023-03-12T15:49:36.997Z,4.05
2023-03-12T15:52:06.814Z,3.25
2023-03-12T15:54:35.301Z,3.72
2023-03-12T15:57:21.047Z,8.35
2023-03-12T16:00:07.286Z,4.25
2023-03-12T16:02:37.502Z,3.72
2023-03-12T16:05:08.010Z,3.85
2023-03-12T16:07:37.355Z,3.80
2023-03-12T16:10:05.509Z,4.40
2023-03-12T16:12:33.421Z,4.88
2023-03-12T16:15:01.276Z,5.18
2023-03-12T16:17:29.381Z,3.17
2023-03-12T16:19:58.627Z,5.10
2023-03-12T16:22:26.676Z,4.15
2023-03-12T16:24:55.342Z,5.88
2023-03-12T16:27:32.327Z,5.25
2023-03-12T16:30:00.886Z,7.53
2023-03-12T16:32:28.749Z,3.50
2023-03-12T16:34:58.015Z,3.60
2023-03-12T16:37:26.946Z,4.20
2023-03-12T16:39:56.771Z,5.43
2023-03-12T16:42:24.640Z,5.07
2023-03-12T16:44:52.610Z,5.88
2023-03-12T16:47:20.848Z,4.10
2023-03-12T16:49:48.663Z,4.97
2023-03-12T16:52:18.941Z,5.78
2023-03-12T16:54:46.923Z,7.45
2023-03-12T16:57:17.681Z,7.00
2023-03-12T16:59:45.656Z,6.03
2023-03-12T17:02:16.652Z,5.07
2023-03-12T17:04:44.623Z,5.30
2023-03-12T17:07:12.442Z,8.50
2023-03-12T17:09:41.794Z,9.15
2023-03-12T17:12:12.563Z,8.48
2023-03-12T17:14:40.473Z,8.82
2023-03-12T17:17:08.439Z,12.35
2023-03-12T17:19:36.301Z,7.20
2023-03-12T17:22:04.605Z,6.82
2023-03-12T17:24:33.036Z,6.10
2023-03-12T17:27:02.248Z,7.28
2023-03-12T17:29:30.376Z,5.63
2023-03-12T17:31:58.527Z,7.57
2023-03-12T17:34:26.452Z,9.63
2023-03-12T17:36:54.283Z,5.20
2023-03-12T17:39:22.149Z,6.20
2023-03-12T17:41:50.441Z,5.95
2023-03-12T17:44:19.666Z,7.20
2023-03-12T17:46:58.934Z,7.72
2023-03-12T17:49:27.695Z,10.88
2023-03-12T17:51:55.676Z,7.75
2023-03-12T17:54:23.943Z,7.78
2023-03-12T17:56:51.814Z,7.93
2023-03-12T17:59:21.225Z,7.13
2023-03-12T18:01:49.128Z,8.10
2023-03-12T18:04:17.069Z,9.02
2023-03-12T18:06:45.319Z,7.88
2023-03-12T18:09:13.223Z,9.38
2023-03-12T18:11:41.072Z,6.60
2023-03-12T18:14:08.945Z,8.73
2023-03-12T18:16:38.266Z,6.28
2023-03-12T18:19:06.269Z,7.90
2023-03-12T18:21:34.196Z,10.27
2023-03-12T18:24:11.786Z,12.27
2023-03-12T18:26:41.725Z,10.95
2023-03-12T18:29:09.531Z,11.48
2023-03-12T18:31:38.961Z,11.63
2023-03-12T18:34:06.941Z,9.75
2023-03-12T18:36:34.866Z,12.52
2023-03-12T18:39:04.708Z,12.43
2023-03-12T18:41:33.013Z,12.48
2023-03-12T18:44:02.250Z,10.65
2023-03-12T18:46:30.481Z,15.57
2023-03-12T18:49:04.126Z,10.70
2023-03-12T18:51:32.432Z,11.93
2023-03-12T18:54:00.334Z,19.00
2023-03-12T18:56:28.998Z,13.40
2023-03-12T18:58:57.122Z,11.88
2023-03-12T19:01:26.181Z,14.35
2023-03-12T19:03:54.298Z,18.23
2023-03-12T19:06:23.701Z,18.75
2023-03-12T19:08:52.586Z,21.52
2023-03-12T19:11:20.540Z,23.13
2023-03-12T19:13:52.198Z,23.48
2023-03-12T19:16:21.982Z,30.10
2023-03-12T19:18:50.408Z,30.92
2023-03-12T19:21:18.560Z,36.80
2023-03-12T19:23:47.958Z,37.80
2023-03-12T19:26:15.968Z,38.15
2023-03-12T19:28:43.884Z,42.47
2023-03-12T19:31:15.113Z,50.28
2023-03-12T19:33:43.961Z,51.38
2023-03-12T19:36:12.330Z,44.90
2023-03-12T19:38:40.240Z,51.65
2023-03-12T19:41:10.320Z,50.88
2023-03-12T19:43:38.547Z,58.17
2023-03-12T19:46:06.977Z,59.60
2023-03-12T19:48:34.983Z,57.65
2023-03-12T19:51:06.299Z,60.67
2023-03-12T19:53:36.952Z,62.75
2023-03-12T19:56:05.131Z,62.28
2023-03-12T19:58:36.477Z,66.68
2023-03-12T20:01:04.630Z,70.95
2023-03-12T20:03:33.002Z,60.90
2023-03-12T20:06:01.051Z,65.90
2023-03-12T20:08:31.722Z,59.22
2023-03-12T20:11:03.279Z,57.25
2023-03-12T20:13:31.713Z,61.17
2023-03-12T20:16:01.490Z,59.63
2023-03-12T20:18:29.598Z,59.58
2023-03-12T20:20:57.724Z,60.78
2023-03-12T20:23:25.700Z,54.17
2023-03-12T20:25:53.631Z,49.95
2023-03-12T20:28:21.710Z,57.53
2023-03-12T20:30:49.827Z,51.88
2023-03-12T20:33:19.514Z,62.30
2023-03-12T20:35:50.256Z,52.75
2023-03-12T20:38:18.381Z,54.10
2023-03-12T20:40:47.241Z,59.92
2023-03-12T20:43:15.160Z,51.83
2023-03-12T20:45:43.392Z,59.67
2023-03-12T20:48:11.975Z,54.38
2023-03-12T20:50:41.280Z,53.30
2023-03-12T20:53:09.129Z,53.00
2023-03-12T20:55:38.867Z,52.00
2023-03-12T20:58:06.873Z,59.10
2023-03-12T21:00:37.997Z,57.53
2023-03-12T21:03:05.915Z,53.70
2023-03-12T21:05:33.895Z,60.35
2023-03-12T21:08:03.256Z,65.93
2023-03-12T21:10:31.890Z,71.43
2023-03-12T21:12:59.840Z,54.40
2023-03-12T21:15:27.882Z,67.03
2023-03-12T21:17:55.939Z,57.80
2023-03-12T21:20:23.923Z,58.90
2023-03-12T21:22:51.804Z,60.88
2023-03-12T21:25:21.208Z,59.08
2023-03-12T21:27:51.358Z,65.45
2023-03-12T21:30:19.987Z,58.83
2023-03-12T21:32:48.051Z,56.22
2023-03-12T21:35:16.255Z,61.30
2023-03-12T21:37:44.287Z,86.35
2023-03-12T21:40:12.938Z,105.75
2023-03-12T21:42:42.226Z,66.82
2023-03-12T21:45:10.902Z,60.05
2023-03-12T21:47:38.906Z,58.42
2023-03-12T21:50:07.345Z,58.17
2023-03-12T21:52:43.076Z,57.75
2023-03-12T21:55:11.663Z,62.47
2023-03-12T21:57:39.549Z,73.60
2023-03-12T22:00:12.877Z,65.47
2023-03-12T22:02:41.182Z,66.65
2023-03-12T22:05:09.753Z,67.88
2023-03-12T22:07:37.950Z,59.45
2023-03-12T22:10:07.144Z,54.63
2023-03-12T22:12:34.982Z,47.08
2023-03-12T22:15:03.519Z,54.22
2023-03-12T22:17:33.468Z,44.85
2023-03-12T22:20:02.287Z,48.30
2023-03-12T22:22:30.102Z,41.17
2023-03-12T22:24:58.023Z,45.85
2023-03-12T22:29:53.501Z,46.35
2023-03-12T22:32:21.445Z,39.72
2023-03-12T22:34:50.983Z,36.45
2023-03-12T22:37:19.049Z,40.08
2023-03-12T22:39:47.072Z,41.00
2023-03-12T22:42:14.896Z,39.22
2023-03-12T22:44:43.168Z,34.25
2023-03-12T22:47:11.057Z,35.60
2023-03-12T22:49:38.898Z,38.60
2023-03-12T22:52:08.370Z,48.10
2023-03-12T22:54:36.249Z,38.97
2023-03-12T22:57:04.492Z,33.78
2023-03-12T22:59:32.962Z,34.35
2023-03-12T23:02:01.023Z,35.55
2023-03-12T23:04:29.061Z,32.90
2023-03-12T23:07:07.664Z,34.80
2023-03-12T23:09:42.788Z,36.75
2023-03-12T23:12:10.691Z,35.42
2023-03-12T23:14:38.518Z,36.63
2023-03-12T23:17:06.566Z,36.72
2023-03-12T23:19:34.629Z,32.80
2023-03-12T23:22:02.774Z,33.47
2023-03-12T23:24:30.878Z,34.33
2023-03-12T23:27:00.290Z,34.42
2023-03-12T23:29:28.176Z,34.88
2023-03-12T23:31:56.174Z,36.25
2023-03-12T23:34:24.129Z,34.83
2023-03-12T23:36:52.496Z,29.88
2023-03-12T23:39:20.336Z,39.90
2023-03-12T23:41:48.241Z,28.55
2023-03-12T23:44:17.611Z,36.47
2023-03-12T23:46:45.996Z,31.80
2023-03-12T23:49:13.896Z,34.80
2023-03-12T23:51:41.883Z,27.80
2023-03-12T23:54:09.766Z,30.40
2023-03-12T23:56:38.973Z,31.08
2023-03-12T23:59:08.071Z,35.42
